sensor_id;sensor_type;location;lat;lon;timestamp;temperature;humidity
56869;DHT22;42754;0.000;0.000;2022-09-23T00:00:29;9.90;99.90
56869;DHT22;42754;0.000;0.000;2022-09-23T00:02:55;9.90;99.90
56869;DHT22;42754;0.000;0.000;2022-09-23T00:05:20;9.90;99.90
56869;DHT22;42754;0.000;0.000;2022-09-23T00:07:46;9.80;99.90
56869;DHT22;42754;0.000;0.000;2022-09-23T00:10:13;9.80;99.90
56869;DHT22;42754;0.000;0.000;2022-09-23T00:12:38;9.70;99.90
56869;DHT22;42754;0.000;0.000;2022-09-23T00:15:04;9.70;99.90
56869;DHT22;42754;0.000;0.000;2022-09-23T00:17:31;9.70;99.90
56869;DHT22;42754;0.000;0.000;2022-09-23T00:19:56;9.70;99.90
56869;DHT22;42754;0.000;0.000;2022-09-23T00:22:22;9.70;99.90
56869;DHT22;42754;0.000;0.000;2022-09-23T00:24:48;9.60;99.90
56869;DHT22;42754;0.000;0.000;2022-09-23T00:27:14;9.60;99.90
56869;DHT22;42754;0.000;0.000;2022-09-23T00:29:39;9.60;99.90
56869;DHT22;42754;0.000;0.000;2022-09-23T00:32:05;9.60;99.90
56869;DHT22;42754;0.000;0.000;2022-09-23T00:34:31;9.60;99.90
56869;DHT22;42754;0.000;0.000;2022-09-23T00:36:56;9.50;99.90
56869;DHT22;42754;0.000;0.000;2022-09-23T00:39:23;9.60;99.90
56869;DHT22;42754;0.000;0.000;2022-09-23T00:41:49;9.50;99.90
56869;DHT22;42754;0.000;0.000;2022-09-23T00:45:16;9.40;99.90
56869;DHT22;42754;0.000;0.000;2022-09-23T00:48:01;9.50;99.90
56869;DHT22;42754;0.000;0.000;2022-09-23T00:52:57;9.30;99.90
56869;DHT22;42754;0.000;0.000;2022-09-23T00:55:33;9.40;99.90
56869;DHT22;42754;0.000;0.000;2022-09-23T00:58:02;9.40;99.90
56869;DHT22;42754;0.000;0.000;2022-09-23T01:00:30;9.50;99.90
56869;DHT22;42754;0.000;0.000;2022-09-23T01:02:59;9.40;99.90
56869;DHT22;42754;0.000;0.000;2022-09-23T01:05:25;9.40;99.90
56869;DHT22;42754;0.000;0.000;2022-09-23T01:07:51;9.40;99.90
56869;DHT22;42754;0.000;0.000;2022-09-23T01:10:18;9.30;99.90
56869;DHT22;42754;0.000;0.000;2022-09-23T01:13:20;9.20;99.90
56869;DHT22;42754;0.000;0.000;2022-09-23T01:16:01;9.20;99.90
56869;DHT22;42754;0.000;0.000;2022-09-23T01:18:42;9.20;99.90
56869;DHT22;42754;0.000;0.000;2022-09-23T01:24:07;9.20;99.90
56869;DHT22;42754;0.000;0.000;2022-09-23T01:37:44;9.10;99.90
56869;DHT22;42754;0.000;0.000;2022-09-23T01:40:30;9.10;99.90
56869;DHT22;42754;0.000;0.000;2022-09-23T01:46:19;9.20;99.90
56869;DHT22;42754;0.000;0.000;2022-09-23T01:51:40;9.10;99.90
56869;DHT22;42754;0.000;0.000;2022-09-23T01:54:31;9.00;99.90
56869;DHT22;42754;0.000;0.000;2022-09-23T01:57:22;9.10;99.90
56869;DHT22;42754;0.000;0.000;2022-09-23T02:00:03;9.00;99.90
56869;DHT22;42754;0.000;0.000;2022-09-23T02:02:36;9.00;99.90
56869;DHT22;42754;0.000;0.000;2022-09-23T02:05:23;9.00;99.90
56869;DHT22;42754;0.000;0.000;2022-09-23T02:08:03;9.00;99.90
56869;DHT22;42754;0.000;0.000;2022-09-23T02:10:35;9.00;99.90
56869;DHT22;42754;0.000;0.000;2022-09-23T02:13:07;9.00;99.90
56869;DHT22;42754;0.000;0.000;2022-09-23T02:15:42;8.90;99.90
56869;DHT22;42754;0.000;0.000;2022-09-23T02:18:15;8.90;99.90
56869;DHT22;42754;0.000;0.000;2022-09-23T02:20:42;8.80;99.90
56869;DHT22;42754;0.000;0.000;2022-09-23T02:23:20;8.80;99.90
56869;DHT22;42754;0.000;0.000;2022-09-23T02:28:52;8.70;99.90
56869;DHT22;42754;0.000;0.000;2022-09-23T02:31:35;8.70;99.90
56869;DHT22;42754;0.000;0.000;2022-09-23T02:34:16;8.70;99.90
56869;DHT22;42754;0.000;0.000;2022-09-23T02:37:06;8.60;99.90
56869;DHT22;42754;0.000;0.000;2022-09-23T02:42:22;8.60;99.90
56869;DHT22;42754;0.000;0.000;2022-09-23T02:44:48;8.60;99.90
56869;DHT22;42754;0.000;0.000;2022-09-23T02:47:16;8.60;99.90
56869;DHT22;42754;0.000;0.000;2022-09-23T02:49:43;8.60;99.90
56869;DHT22;42754;0.000;0.000;2022-09-23T02:52:10;8.60;99.90
56869;DHT22;42754;0.000;0.000;2022-09-23T02:54:38;8.60;99.90
56869;DHT22;42754;0.000;0.000;2022-09-23T02:57:05;8.60;99.90
56869;DHT22;42754;0.000;0.000;2022-09-23T02:59:33;8.70;99.90
56869;DHT22;42754;0.000;0.000;2022-09-23T03:07:12;8.70;99.90
56869;DHT22;42754;0.000;0.000;2022-09-23T03:12:21;8.70;99.90
56869;DHT22;42754;0.000;0.000;2022-09-23T03:22:39;8.60;99.90
56869;DHT22;42754;0.000;0.000;2022-09-23T03:25:10;8.70;99.90
56869;DHT22;42754;0.000;0.000;2022-09-23T03:27:38;8.60;99.90
56869;DHT22;42754;0.000;0.000;2022-09-23T03:30:07;8.60;99.90
56869;DHT22;42754;0.000;0.000;2022-09-23T03:32:34;8.60;99.90
56869;DHT22;42754;0.000;0.000;2022-09-23T03:35:02;8.50;99.90
56869;DHT22;42754;0.000;0.000;2022-09-23T03:37:43;8.50;99.90
56869;DHT22;42754;0.000;0.000;2022-09-23T03:40:34;8.50;99.90
56869;DHT22;42754;0.000;0.000;2022-09-23T03:43:00;8.50;99.90
56869;DHT22;42754;0.000;0.000;2022-09-23T03:45:30;8.50;99.90
56869;DHT22;42754;0.000;0.000;2022-09-23T03:47:57;8.40;99.90
56869;DHT22;42754;0.000;0.000;2022-09-23T03:50:23;8.40;99.90
56869;DHT22;42754;0.000;0.000;2022-09-23T03:52:49;8.40;99.90
56869;DHT22;42754;0.000;0.000;2022-09-23T03:55:15;8.40;99.90
56869;DHT22;42754;0.000;0.000;2022-09-23T03:57:42;8.40;99.90
56869;DHT22;42754;0.000;0.000;2022-09-23T04:00:09;8.50;99.90
56869;DHT22;42754;0.000;0.000;2022-09-23T04:02:35;8.40;99.90
56869;DHT22;42754;0.000;0.000;2022-09-23T04:05:01;8.40;99.90
56869;DHT22;42754;0.000;0.000;2022-09-23T04:07:26;8.30;99.90
56869;DHT22;42754;0.000;0.000;2022-09-23T04:09:52;8.30;99.90
56869;DHT22;42754;0.000;0.000;2022-09-23T04:12:18;8.30;99.90
56869;DHT22;42754;0.000;0.000;2022-09-23T04:14:43;8.30;99.90
56869;DHT22;42754;0.000;0.000;2022-09-23T04:17:10;8.30;99.90
56869;DHT22;42754;0.000;0.000;2022-09-23T04:19:36;8.20;99.90
56869;DHT22;42754;0.000;0.000;2022-09-23T04:22:02;8.20;99.90
56869;DHT22;42754;0.000;0.000;2022-09-23T04:24:28;8.20;99.90
56869;DHT22;42754;0.000;0.000;2022-09-23T04:26:55;8.10;99.90
56869;DHT22;42754;0.000;0.000;2022-09-23T04:29:21;8.20;99.90
56869;DHT22;42754;0.000;0.000;2022-09-23T04:31:47;8.20;99.90
56869;DHT22;42754;0.000;0.000;2022-09-23T04:34:13;8.20;99.90
56869;DHT22;42754;0.000;0.000;2022-09-23T04:36:40;8.20;99.90
56869;DHT22;42754;0.000;0.000;2022-09-23T04:39:06;8.20;99.90
56869;DHT22;42754;0.000;0.000;2022-09-23T04:41:32;8.30;99.90
56869;DHT22;42754;0.000;0.000;2022-09-23T04:43:57;8.20;99.90
56869;DHT22;42754;0.000;0.000;2022-09-23T04:46:23;8.30;99.90
56869;DHT22;42754;0.000;0.000;2022-09-23T04:48:49;8.30;99.90
56869;DHT22;42754;0.000;0.000;2022-09-23T04:51:23;8.30;99.90
56869;DHT22;42754;0.000;0.000;2022-09-23T04:53:50;8.30;99.90
56869;DHT22;42754;0.000;0.000;2022-09-23T04:56:25;8.40;99.90
56869;DHT22;42754;0.000;0.000;2022-09-23T04:58:51;8.30;99.90
56869;DHT22;42754;0.000;0.000;2022-09-23T05:01:22;8.20;99.90
56869;DHT22;42754;0.000;0.000;2022-09-23T05:03:50;8.20;99.90
56869;DHT22;42754;0.000;0.000;2022-09-23T05:06:16;8.20;99.90
56869;DHT22;42754;0.000;0.000;2022-09-23T05:08:46;8.20;99.90
56869;DHT22;42754;0.000;0.000;2022-09-23T05:11:12;8.30;99.90
56869;DHT22;42754;0.000;0.000;2022-09-23T05:13:38;8.30;99.90
56869;DHT22;42754;0.000;0.000;2022-09-23T05:16:06;8.40;99.90
56869;DHT22;42754;0.000;0.000;2022-09-23T05:18:37;8.40;99.90
56869;DHT22;42754;0.000;0.000;2022-09-23T05:21:06;8.40;99.90
56869;DHT22;42754;0.000;0.000;2022-09-23T05:23:32;8.30;99.90
56869;DHT22;42754;0.000;0.000;2022-09-23T05:26:00;8.30;99.90
56869;DHT22;42754;0.000;0.000;2022-09-23T05:28:26;8.40;99.90
56869;DHT22;42754;0.000;0.000;2022-09-23T05:31:15;8.30;99.90
56869;DHT22;42754;0.000;0.000;2022-09-23T05:33:43;8.40;99.90
56869;DHT22;42754;0.000;0.000;2022-09-23T05:36:11;8.40;99.90
56869;DHT22;42754;0.000;0.000;2022-09-23T05:38:37;8.40;99.90
56869;DHT22;42754;0.000;0.000;2022-09-23T05:41:07;8.40;99.90
56869;DHT22;42754;0.000;0.000;2022-09-23T05:43:34;8.40;99.90
56869;DHT22;42754;0.000;0.000;2022-09-23T05:46:05;8.50;99.90
56869;DHT22;42754;0.000;0.000;2022-09-23T05:48:32;8.60;99.90
56869;DHT22;42754;0.000;0.000;2022-09-23T05:50:58;8.60;99.90
56869;DHT22;42754;0.000;0.000;2022-09-23T05:53:25;8.60;99.90
56869;DHT22;42754;0.000;0.000;2022-09-23T05:55:51;8.70;99.90
56869;DHT22;42754;0.000;0.000;2022-09-23T05:58:19;8.70;99.90
56869;DHT22;42754;0.000;0.000;2022-09-23T06:00:45;8.70;99.90
56869;DHT22;42754;0.000;0.000;2022-09-23T06:03:20;8.80;99.90
56869;DHT22;42754;0.000;0.000;2022-09-23T06:05:46;8.80;99.90
56869;DHT22;42754;0.000;0.000;2022-09-23T06:08:13;8.90;99.90
56869;DHT22;42754;0.000;0.000;2022-09-23T06:10:41;9.00;99.90
56869;DHT22;42754;0.000;0.000;2022-09-23T06:13:07;9.10;99.90
56869;DHT22;42754;0.000;0.000;2022-09-23T06:15:35;9.30;99.90
56869;DHT22;42754;0.000;0.000;2022-09-23T06:18:01;9.50;99.90
56869;DHT22;42754;0.000;0.000;2022-09-23T06:20:27;9.50;99.90
56869;DHT22;42754;0.000;0.000;2022-09-23T06:22:53;9.40;99.90
56869;DHT22;42754;0.000;0.000;2022-09-23T06:25:19;9.40;99.90
56869;DHT22;42754;0.000;0.000;2022-09-23T06:27:54;9.30;99.90
56869;DHT22;42754;0.000;0.000;2022-09-23T06:30:20;9.30;99.90
56869;DHT22;42754;0.000;0.000;2022-09-23T06:33:04;9.30;99.90
56869;DHT22;42754;0.000;0.000;2022-09-23T06:35:30;9.40;99.90
56869;DHT22;42754;0.000;0.000;2022-09-23T06:38:01;9.40;99.90
56869;DHT22;42754;0.000;0.000;2022-09-23T06:40:27;9.50;99.90
56869;DHT22;42754;0.000;0.000;2022-09-23T06:42:57;9.50;99.90
56869;DHT22;42754;0.000;0.000;2022-09-23T06:45:23;9.60;99.90
56869;DHT22;42754;0.000;0.000;2022-09-23T06:47:53;9.60;99.90
56869;DHT22;42754;0.000;0.000;2022-09-23T06:50:21;9.70;99.90
56869;DHT22;42754;0.000;0.000;2022-09-23T06:52:55;9.70;99.90
56869;DHT22;42754;0.000;0.000;2022-09-23T06:55:22;9.80;99.90
56869;DHT22;42754;0.000;0.000;2022-09-23T06:57:48;9.80;99.90
56869;DHT22;42754;0.000;0.000;2022-09-23T07:00:14;9.80;99.90
56869;DHT22;42754;0.000;0.000;2022-09-23T07:02:40;9.90;99.90
56869;DHT22;42754;0.000;0.000;2022-09-23T07:05:09;10.00;99.90
56869;DHT22;42754;0.000;0.000;2022-09-23T07:07:35;10.00;99.90
56869;DHT22;42754;0.000;0.000;2022-09-23T07:10:05;10.00;99.90
56869;DHT22;42754;0.000;0.000;2022-09-23T07:12:31;10.00;99.90
56869;DHT22;42754;0.000;0.000;2022-09-23T07:14:57;10.10;99.90
56869;DHT22;42754;0.000;0.000;2022-09-23T07:17:24;10.20;99.90
56869;DHT22;42754;0.000;0.000;2022-09-23T07:19:50;10.20;99.90
56869;DHT22;42754;0.000;0.000;2022-09-23T07:22:22;10.30;99.90
56869;DHT22;42754;0.000;0.000;2022-09-23T07:24:49;10.30;99.90
56869;DHT22;42754;0.000;0.000;2022-09-23T07:27:16;10.30;99.90
56869;DHT22;42754;0.000;0.000;2022-09-23T07:29:45;10.40;99.90
56869;DHT22;42754;0.000;0.000;2022-09-23T07:32:12;10.40;99.90
56869;DHT22;42754;0.000;0.000;2022-09-23T07:34:37;10.40;99.90
56869;DHT22;42754;0.000;0.000;2022-09-23T07:37:04;10.50;99.90
56869;DHT22;42754;0.000;0.000;2022-09-23T07:39:29;10.50;99.90
56869;DHT22;42754;0.000;0.000;2022-09-23T07:41:55;10.50;99.90
56869;DHT22;42754;0.000;0.000;2022-09-23T07:44:21;10.60;99.90
56869;DHT22;42754;0.000;0.000;2022-09-23T07:46:47;10.60;99.90
56869;DHT22;42754;0.000;0.000;2022-09-23T07:49:14;10.60;99.90
56869;DHT22;42754;0.000;0.000;2022-09-23T07:51:40;10.70;99.90
56869;DHT22;42754;0.000;0.000;2022-09-23T07:54:12;10.80;99.90
56869;DHT22;42754;0.000;0.000;2022-09-23T07:56:39;10.80;99.90
56869;DHT22;42754;0.000;0.000;2022-09-23T07:59:06;10.80;99.90
56869;DHT22;42754;0.000;0.000;2022-09-23T08:04:03;10.90;99.90
56869;DHT22;42754;0.000;0.000;2022-09-23T08:06:30;11.00;99.90
56869;DHT22;42754;0.000;0.000;2022-09-23T08:08:57;11.20;99.90
56869;DHT22;42754;0.000;0.000;2022-09-23T08:11:24;11.30;99.90
56869;DHT22;42754;0.000;0.000;2022-09-23T08:13:50;11.50;99.90
56869;DHT22;42754;0.000;0.000;2022-09-23T08:16:16;11.60;99.90
56869;DHT22;42754;0.000;0.000;2022-09-23T08:18:45;11.70;99.90
56869;DHT22;42754;0.000;0.000;2022-09-23T08:21:11;11.80;99.90
56869;DHT22;42754;0.000;0.000;2022-09-23T08:23:37;11.80;99.90
56869;DHT22;42754;0.000;0.000;2022-09-23T08:26:04;11.80;99.90
56869;DHT22;42754;0.000;0.000;2022-09-23T08:28:31;11.80;99.90
56869;DHT22;42754;0.000;0.000;2022-09-23T08:30:58;11.90;99.90
56869;DHT22;42754;0.000;0.000;2022-09-23T08:33:24;12.10;99.90
56869;DHT22;42754;0.000;0.000;2022-09-23T08:35:50;12.30;99.90
56869;DHT22;42754;0.000;0.000;2022-09-23T08:38:16;12.50;99.90
56869;DHT22;42754;0.000;0.000;2022-09-23T08:40:45;12.70;99.90
56869;DHT22;42754;0.000;0.000;2022-09-23T08:43:32;12.80;99.90
56869;DHT22;42754;0.000;0.000;2022-09-23T08:46:08;12.70;99.90
56869;DHT22;42754;0.000;0.000;2022-09-23T08:48:41;12.70;99.90
56869;DHT22;42754;0.000;0.000;2022-09-23T08:51:13;12.60;99.90
56869;DHT22;42754;0.000;0.000;2022-09-23T08:53:40;12.80;99.90
56869;DHT22;42754;0.000;0.000;2022-09-23T08:56:18;12.80;99.90
56869;DHT22;42754;0.000;0.000;2022-09-23T08:59:13;12.90;99.90
56869;DHT22;42754;0.000;0.000;2022-09-23T09:07:12;13.00;99.90
56869;DHT22;42754;0.000;0.000;2022-09-23T09:12:23;12.90;99.90
56869;DHT22;42754;0.000;0.000;2022-09-23T09:15:04;13.00;99.90
56869;DHT22;42754;0.000;0.000;2022-09-23T09:17:37;13.00;99.90
56869;DHT22;42754;0.000;0.000;2022-09-23T09:20:20;13.10;99.90
56869;DHT22;42754;0.000;0.000;2022-09-23T09:22:58;13.20;99.90
56869;DHT22;42754;0.000;0.000;2022-09-23T09:28:13;13.40;99.90
56869;DHT22;42754;0.000;0.000;2022-09-23T09:30:40;13.50;99.90
56869;DHT22;42754;0.000;0.000;2022-09-23T09:33:14;13.50;99.90
56869;DHT22;42754;0.000;0.000;2022-09-23T09:36:03;13.50;99.90
56869;DHT22;42754;0.000;0.000;2022-09-23T09:38:33;13.70;99.90
56869;DHT22;42754;0.000;0.000;2022-09-23T09:41:07;13.80;99.90
56869;DHT22;42754;0.000;0.000;2022-09-23T09:43:38;14.10;99.90
56869;DHT22;42754;0.000;0.000;2022-09-23T09:46:30;14.20;99.90
56869;DHT22;42754;0.000;0.000;2022-09-23T09:49:46;14.20;99.90
56869;DHT22;42754;0.000;0.000;2022-09-23T09:52:23;14.20;99.90
56869;DHT22;42754;0.000;0.000;2022-09-23T09:54:51;14.30;99.90
56869;DHT22;42754;0.000;0.000;2022-09-23T09:57:31;14.30;99.90
56869;DHT22;42754;0.000;0.000;2022-09-23T10:00:15;14.30;99.90
56869;DHT22;42754;0.000;0.000;2022-09-23T10:02:42;14.30;99.90
56869;DHT22;42754;0.000;0.000;2022-09-23T10:07:52;14.40;99.90
56869;DHT22;42754;0.000;0.000;2022-09-23T10:10:24;14.40;99.90
56869;DHT22;42754;0.000;0.000;2022-09-23T10:12:50;14.50;99.90
56869;DHT22;42754;0.000;0.000;2022-09-23T10:15:29;14.60;99.90
56869;DHT22;42754;0.000;0.000;2022-09-23T10:17:58;14.70;99.90
56869;DHT22;42754;0.000;0.000;2022-09-23T10:20:31;14.70;99.90
56869;DHT22;42754;0.000;0.000;2022-09-23T10:23:06;14.80;99.90
56869;DHT22;42754;0.000;0.000;2022-09-23T10:25:33;14.80;99.90
56869;DHT22;42754;0.000;0.000;2022-09-23T10:28:29;14.90;99.90
56869;DHT22;42754;0.000;0.000;2022-09-23T10:31:17;15.10;99.90
56869;DHT22;42754;0.000;0.000;2022-09-23T10:33:52;15.10;99.90
56869;DHT22;42754;0.000;0.000;2022-09-23T10:36:19;15.20;99.90
56869;DHT22;42754;0.000;0.000;2022-09-23T10:38:48;15.20;99.90
56869;DHT22;42754;0.000;0.000;2022-09-23T10:41:52;15.30;99.90
56869;DHT22;42754;0.000;0.000;2022-09-23T10:44:47;15.30;99.90
56869;DHT22;42754;0.000;0.000;2022-09-23T10:50:51;15.50;99.90
56869;DHT22;42754;0.000;0.000;2022-09-23T10:56:34;15.80;99.90
56869;DHT22;42754;0.000;0.000;2022-09-23T11:13:00;16.00;99.90
56869;DHT22;42754;0.000;0.000;2022-09-23T11:16:17;16.00;99.90
56869;DHT22;42754;0.000;0.000;2022-09-23T11:21:40;16.00;99.90
56869;DHT22;42754;0.000;0.000;2022-09-23T11:25:12;15.90;99.90
56869;DHT22;42754;0.000;0.000;2022-09-23T11:30:18;15.90;99.90
56869;DHT22;42754;0.000;0.000;2022-09-23T11:33:00;15.80;99.90
56869;DHT22;42754;0.000;0.000;2022-09-23T11:38:22;15.80;99.90
56869;DHT22;42754;0.000;0.000;2022-09-23T11:41:21;15.90;99.90
56869;DHT22;42754;0.000;0.000;2022-09-23T11:43:52;15.80;99.90
56869;DHT22;42754;0.000;0.000;2022-09-23T11:46:42;15.80;99.90
56869;DHT22;42754;0.000;0.000;2022-09-23T11:56:55;16.10;99.90
56869;DHT22;42754;0.000;0.000;2022-09-23T11:59:45;16.00;99.90
56869;DHT22;42754;0.000;0.000;2022-09-23T12:03:20;16.00;99.90
56869;DHT22;42754;0.000;0.000;2022-09-23T12:05:25;16.00;99.90
56869;DHT22;42754;0.000;0.000;2022-09-23T12:19:20;16.10;99.90
56869;DHT22;42754;0.000;0.000;2022-09-23T12:25:34;16.20;99.90
56869;DHT22;42754;0.000;0.000;2022-09-23T12:28:05;16.30;99.90
56869;DHT22;42754;0.000;0.000;2022-09-23T12:30:35;16.40;99.90
56869;DHT22;42754;0.000;0.000;2022-09-23T12:33:28;16.50;99.90
56869;DHT22;42754;0.000;0.000;2022-09-23T12:36:05;16.50;99.90
56869;DHT22;42754;0.000;0.000;2022-09-23T12:38:46;16.50;99.90
56869;DHT22;42754;0.000;0.000;2022-09-23T12:41:38;16.60;99.90
56869;DHT22;42754;0.000;0.000;2022-09-23T12:46:43;16.70;99.90
56869;DHT22;42754;0.000;0.000;2022-09-23T12:49:35;16.80;99.90
56869;DHT22;42754;0.000;0.000;2022-09-23T12:54:44;17.10;99.90
56869;DHT22;42754;0.000;0.000;2022-09-23T12:57:12;17.20;99.90
56869;DHT22;42754;0.000;0.000;2022-09-23T13:05:19;17.20;99.90
56869;DHT22;42754;0.000;0.000;2022-09-23T13:08:23;17.20;99.90
56869;DHT22;42754;0.000;0.000;2022-09-23T13:10:56;17.10;99.90
56869;DHT22;42754;0.000;0.000;2022-09-23T13:13:33;17.10;99.90
56869;DHT22;42754;0.000;0.000;2022-09-23T13:19:05;17.20;99.90
56869;DHT22;42754;0.000;0.000;2022-09-23T13:29:39;17.20;99.90
56869;DHT22;42754;0.000;0.000;2022-09-23T13:32:12;17.20;99.90
56869;DHT22;42754;0.000;0.000;2022-09-23T13:34:40;17.20;99.90
56869;DHT22;42754;0.000;0.000;2022-09-23T13:37:23;17.20;99.90
56869;DHT22;42754;0.000;0.000;2022-09-23T13:39:49;17.10;99.90
56869;DHT22;42754;0.000;0.000;2022-09-23T13:42:24;17.10;99.90
56869;DHT22;42754;0.000;0.000;2022-09-23T13:44:56;17.10;99.90
56869;DHT22;42754;0.000;0.000;2022-09-23T13:47:28;17.10;99.90
56869;DHT22;42754;0.000;0.000;2022-09-23T13:49:55;17.10;99.90
56869;DHT22;42754;0.000;0.000;2022-09-23T13:52:28;17.10;99.90
56869;DHT22;42754;0.000;0.000;2022-09-23T13:54:56;17.10;99.90
56869;DHT22;42754;0.000;0.000;2022-09-23T13:57:30;17.10;99.90
56869;DHT22;42754;0.000;0.000;2022-09-23T14:00:20;17.10;99.90
56869;DHT22;42754;0.000;0.000;2022-09-23T14:02:46;17.10;99.90
56869;DHT22;42754;0.000;0.000;2022-09-23T14:05:23;17.10;99.90
56869;DHT22;42754;0.000;0.000;2022-09-23T14:07:50;17.10;99.90
56869;DHT22;42754;0.000;0.000;2022-09-23T14:10:20;17.20;99.90
56869;DHT22;42754;0.000;0.000;2022-09-23T14:12:51;17.30;99.90
56869;DHT22;42754;0.000;0.000;2022-09-23T14:15:18;17.30;99.90
56869;DHT22;42754;0.000;0.000;2022-09-23T14:17:47;17.40;99.90
56869;DHT22;42754;0.000;0.000;2022-09-23T14:20:15;17.40;99.90
56869;DHT22;42754;0.000;0.000;2022-09-23T14:22:42;17.50;99.90
56869;DHT22;42754;0.000;0.000;2022-09-23T14:25:16;17.60;99.90
56869;DHT22;42754;0.000;0.000;2022-09-23T14:27:42;17.60;99.90
56869;DHT22;42754;0.000;0.000;2022-09-23T14:30:18;17.60;99.90
56869;DHT22;42754;0.000;0.000;2022-09-23T14:32:44;17.70;99.90
56869;DHT22;42754;0.000;0.000;2022-09-23T14:35:20;17.60;99.90
56869;DHT22;42754;0.000;0.000;2022-09-23T14:37:49;17.60;99.90
56869;DHT22;42754;0.000;0.000;2022-09-23T14:40:37;17.50;99.90
56869;DHT22;42754;0.000;0.000;2022-09-23T14:43:17;17.50;99.90
56869;DHT22;42754;0.000;0.000;2022-09-23T14:45:58;17.40;99.90
56869;DHT22;42754;0.000;0.000;2022-09-23T14:50:58;17.30;99.90
56869;DHT22;42754;0.000;0.000;2022-09-23T14:53:34;17.30;99.90
56869;DHT22;42754;0.000;0.000;2022-09-23T14:58:46;17.20;99.90
56869;DHT22;42754;0.000;0.000;2022-09-23T15:04:25;17.20;99.90
56869;DHT22;42754;0.000;0.000;2022-09-23T15:07:04;17.20;99.90
56869;DHT22;42754;0.000;0.000;2022-09-23T15:09:36;17.10;99.90
56869;DHT22;42754;0.000;0.000;2022-09-23T15:12:13;17.20;99.90
56869;DHT22;42754;0.000;0.000;2022-09-23T15:14:43;17.10;99.90
56869;DHT22;42754;0.000;0.000;2022-09-23T15:20:36;17.20;99.90
56869;DHT22;42754;0.000;0.000;2022-09-23T15:22:48;17.20;99.90
56869;DHT22;42754;0.000;0.000;2022-09-23T15:25:16;17.20;99.90
56869;DHT22;42754;0.000;0.000;2022-09-23T15:27:58;17.20;99.90
56869;DHT22;42754;0.000;0.000;2022-09-23T15:30:24;17.20;99.90
56869;DHT22;42754;0.000;0.000;2022-09-23T15:32:50;17.20;99.90
56869;DHT22;42754;0.000;0.000;2022-09-23T15:35:18;17.10;99.90
56869;DHT22;42754;0.000;0.000;2022-09-23T15:37:47;17.10;99.90
56869;DHT22;42754;0.000;0.000;2022-09-23T15:40:24;17.10;99.90
56869;DHT22;42754;0.000;0.000;2022-09-23T15:42:56;17.00;99.90
56869;DHT22;42754;0.000;0.000;2022-09-23T15:45:43;17.00;99.90
56869;DHT22;42754;0.000;0.000;2022-09-23T15:48:12;17.00;99.90
56869;DHT22;42754;0.000;0.000;2022-09-23T15:50:38;17.00;99.90
56869;DHT22;42754;0.000;0.000;2022-09-23T15:53:44;17.00;99.90
56869;DHT22;42754;0.000;0.000;2022-09-23T15:56:03;16.90;99.90
56869;DHT22;42754;0.000;0.000;2022-09-23T15:58:29;16.90;99.90
56869;DHT22;42754;0.000;0.000;2022-09-23T16:00:55;16.90;99.90
56869;DHT22;42754;0.000;0.000;2022-09-23T16:03:22;16.90;99.90
56869;DHT22;42754;0.000;0.000;2022-09-23T16:05:50;16.90;99.90
56869;DHT22;42754;0.000;0.000;2022-09-23T16:08:16;16.90;99.90
56869;DHT22;42754;0.000;0.000;2022-09-23T16:10:47;16.80;99.90
56869;DHT22;42754;0.000;0.000;2022-09-23T16:13:13;16.80;99.90
56869;DHT22;42754;0.000;0.000;2022-09-23T16:15:39;16.80;99.90
56869;DHT22;42754;0.000;0.000;2022-09-23T16:18:06;16.80;99.90
56869;DHT22;42754;0.000;0.000;2022-09-23T16:20:35;16.70;99.90
56869;DHT22;42754;0.000;0.000;2022-09-23T16:23:01;16.70;99.90
56869;DHT22;42754;0.000;0.000;2022-09-23T16:25:30;16.70;99.90
56869;DHT22;42754;0.000;0.000;2022-09-23T16:27:58;16.60;99.90
56869;DHT22;42754;0.000;0.000;2022-09-23T16:30:28;16.60;99.90
56869;DHT22;42754;0.000;0.000;2022-09-23T16:32:54;16.60;99.90
56869;DHT22;42754;0.000;0.000;2022-09-23T16:35:22;16.50;99.90
56869;DHT22;42754;0.000;0.000;2022-09-23T16:37:49;16.50;99.90
56869;DHT22;42754;0.000;0.000;2022-09-23T16:40:17;16.50;99.90
56869;DHT22;42754;0.000;0.000;2022-09-23T16:42:50;16.40;99.90
56869;DHT22;42754;0.000;0.000;2022-09-23T16:45:18;16.40;99.90
56869;DHT22;42754;0.000;0.000;2022-09-23T16:47:47;16.40;99.90
56869;DHT22;42754;0.000;0.000;2022-09-23T16:50:15;16.30;99.90
56869;DHT22;42754;0.000;0.000;2022-09-23T16:52:41;16.30;99.90
56869;DHT22;42754;0.000;0.000;2022-09-23T16:55:08;16.20;99.90
56869;DHT22;42754;0.000;0.000;2022-09-23T16:57:35;16.20;99.90
56869;DHT22;42754;0.000;0.000;2022-09-23T17:00:08;16.10;99.90
56869;DHT22;42754;0.000;0.000;2022-09-23T17:02:53;16.20;99.90
56869;DHT22;42754;0.000;0.000;2022-09-23T17:05:37;16.10;99.90
56869;DHT22;42754;0.000;0.000;2022-09-23T17:08:03;16.10;99.90
56869;DHT22;42754;0.000;0.000;2022-09-23T17:10:29;16.00;99.90
56869;DHT22;42754;0.000;0.000;2022-09-23T17:12:55;16.00;99.90
56869;DHT22;42754;0.000;0.000;2022-09-23T17:15:21;16.00;99.90
56869;DHT22;42754;0.000;0.000;2022-09-23T17:17:47;16.00;99.90
56869;DHT22;42754;0.000;0.000;2022-09-23T17:20:13;16.00;99.90
56869;DHT22;42754;0.000;0.000;2022-09-23T17:22:39;15.90;99.90
56869;DHT22;42754;0.000;0.000;2022-09-23T17:25:06;15.90;99.90
56869;DHT22;42754;0.000;0.000;2022-09-23T17:27:35;15.90;99.90
56869;DHT22;42754;0.000;0.000;2022-09-23T17:30:03;15.80;99.90
56869;DHT22;42754;0.000;0.000;2022-09-23T17:32:29;15.80;99.90
56869;DHT22;42754;0.000;0.000;2022-09-23T17:34:55;15.70;99.90
56869;DHT22;42754;0.000;0.000;2022-09-23T17:37:21;15.80;99.90
56869;DHT22;42754;0.000;0.000;2022-09-23T17:39:47;15.70;99.90
56869;DHT22;42754;0.000;0.000;2022-09-23T17:42:12;15.70;99.90
56869;DHT22;42754;0.000;0.000;2022-09-23T17:44:39;15.70;99.90
56869;DHT22;42754;0.000;0.000;2022-09-23T17:47:05;15.60;99.90
56869;DHT22;42754;0.000;0.000;2022-09-23T17:49:31;15.60;99.90
56869;DHT22;42754;0.000;0.000;2022-09-23T17:52:00;15.60;99.90
56869;DHT22;42754;0.000;0.000;2022-09-23T17:54:29;15.60;99.90
56869;DHT22;42754;0.000;0.000;2022-09-23T17:56:57;15.60;99.90
56869;DHT22;42754;0.000;0.000;2022-09-23T17:59:23;15.50;99.90
56869;DHT22;42754;0.000;0.000;2022-09-23T18:01:49;15.50;99.90
56869;DHT22;42754;0.000;0.000;2022-09-23T18:04:15;15.50;99.90
56869;DHT22;42754;0.000;0.000;2022-09-23T18:06:40;15.50;99.90
56869;DHT22;42754;0.000;0.000;2022-09-23T18:09:06;15.40;99.90
56869;DHT22;42754;0.000;0.000;2022-09-23T18:11:38;15.40;99.90
56869;DHT22;42754;0.000;0.000;2022-09-23T18:14:06;15.40;99.90
56869;DHT22;42754;0.000;0.000;2022-09-23T18:16:38;15.30;99.90
56869;DHT22;42754;0.000;0.000;2022-09-23T18:19:05;15.30;99.90
56869;DHT22;42754;0.000;0.000;2022-09-23T18:21:33;15.30;99.90
56869;DHT22;42754;0.000;0.000;2022-09-23T18:24:00;15.20;99.90
56869;DHT22;42754;0.000;0.000;2022-09-23T18:26:26;15.10;99.90
56869;DHT22;42754;0.000;0.000;2022-09-23T18:28:53;15.10;99.90
56869;DHT22;42754;0.000;0.000;2022-09-23T18:31:22;15.10;99.90
56869;DHT22;42754;0.000;0.000;2022-09-23T18:33:53;15.10;99.90
56869;DHT22;42754;0.000;0.000;2022-09-23T18:36:20;15.10;99.90
56869;DHT22;42754;0.000;0.000;2022-09-23T18:38:46;15.10;99.90
56869;DHT22;42754;0.000;0.000;2022-09-23T18:41:13;15.10;99.90
56869;DHT22;42754;0.000;0.000;2022-09-23T18:43:38;15.00;99.90